This is the latest recevied weather packets stored in our database for station/object KF6RAL-6. If no packets are shown the sender has not sent any weather packets the latest 10 day(s).
| Time | Temp. | Humidity | Pressure | Rain* | Wind** | Luminosity | Snow |
|---|---|---|---|---|---|---|---|
| 1788039142 | 23.33° C | 63% | 1015 hPa | 0.51 mm | - | - | - |
| 1788038721 | 22.78° C | 66% | 1015.1 hPa | 0.76 mm | - | - | - |
| 1788037459 | 21.67° C | 69% | 1016.6 hPa | 1.52 mm | - | - | - |
| 1788037037 | 21.67° C | 70% | 1016.5 hPa | 1.52 mm | - | - | - |
| 1788036616 | 21.11° C | 68% | 1016.7 hPa | 1.52 mm | - | - | - |
| 1788036195 | 21.67° C | 68% | 1017.3 hPa | 1.02 mm | - | - | - |
| 1788035353 | 21.67° C | 70% | 1017 hPa | 0.76 mm | - | - | - |
| 1788034932 | 21.11° C | 69% | 1016.8 hPa | 0.76 mm | - | - | - |
| 1788034513 | 21.67° C | 68% | 1017.1 hPa | 0.76 mm | - | - | - |
| 1788034090 | 21.67° C | 67% | 1018 hPa | 0 mm | - | - | - |
| 1788033670 | 21.67° C | 68% | 1017.6 hPa | 0 mm | - | - | - |
| 1788033248 | 21.67° C | 70% | 1017.2 hPa | 0 mm | - | - | - |
| 1788032827 | 21.11° C | 71% | 1016.6 hPa | 0 mm | - | - | - |
| 1788032406 | 21.11° C | 71% | 1016.5 hPa | 0 mm | - | - | - |
| 1788031564 | 21.11° C | 71% | 1016.6 hPa | 0 mm | - | - | - |
| 1788031143 | 21.11° C | 72% | 1016.4 hPa | 0 mm | - | - | - |
| 1788030722 | 21.11° C | 73% | 1016.5 hPa | 0 mm | - | - | - |
| 1788030302 | 21.11° C | 73% | 1016.6 hPa | 0 mm | - | - | - |
| 1788029880 | 20.56° C | 72% | 1016.7 hPa | 0.25 mm | - | - | - |
| 1788029460 | 20.56° C | 72% | 1016.8 hPa | 0.25 mm | - | - | - |
| 1788029039 | 20.56° C | 73% | 1016.9 hPa | 0.25 mm | - | - | - |
| 1788028617 | 19.44° C | 76% | 1017.5 hPa | 0.25 mm | - | - | - |
| 1788028196 | 19.44° C | 79% | 1018 hPa | 0.25 mm | - | - | - |
| 1788027775 | 18.89° C | 82% | 1019 hPa | 0.25 mm | - | - | - |
| 1788027356 | 18.89° C | 85% | 1019 hPa | 0.25 mm | - | - | - |
* Rain latest hour (hover to see other rain measurements)
** Current wind speed in m/s (hover to see current wind gust speed)